Time;durP1;ratioP1;P1;durP2;ratioP2;P2;SDS_P1;SDS_P2;PMS_P1;PMS_P2;Temp;Humidity;BMP_temperature;BMP_pressure;BME280_temperature;BME280_humidity;BME280_pressure;Samples;Min_cycle;Max_cycle;Signal;HPM_P1;HPM_P2
2021/03/04 00:00:17;;;;;;;48.83;22.90;;;5.00;1.00;;;;;;5077991;28;20190;-61
2021/03/04 00:02:43;;;;;;;44.00;22.93;;;4.90;1.00;;;;;;5073451;28;20195;-61
2021/03/04 00:05:11;;;;;;;43.53;22.77;;;5.00;1.00;;;;;;5074186;28;20457;-61
2021/03/04 00:07:38;;;;;;;41.97;22.13;;;5.10;1.00;;;;;;5073088;28;20290;-61
2021/03/04 00:10:12;;;;;;;40.57;22.57;;;5.00;1.00;;;;;;5075621;28;20927;-59
2021/03/04 00:12:38;;;;;;;43.03;23.10;;;5.00;1.00;;;;;;5070481;28;20480;-61
2021/03/04 00:15:05;;;;;;;38.70;21.27;;;5.00;1.00;;;;;;5082196;28;20464;-61
2021/03/04 00:17:31;;;;;;;46.30;22.13;;;5.00;1.00;;;;;;5070609;28;20217;-60
2021/03/04 00:19:56;;;;;;;46.37;23.60;;;4.90;1.00;;;;;;5076735;28;20450;-58
2021/03/04 00:22:22;;;;;;;46.67;22.60;;;5.00;1.00;;;;;;5078237;28;20681;-59
2021/03/04 00:24:47;;;;;;;45.07;22.30;;;5.00;1.00;;;;;;5077924;28;20206;-59
2021/03/04 00:27:13;;;;;;;51.93;22.27;;;5.00;1.00;;;;;;5071135;28;20214;-59
2021/03/04 00:29:39;;;;;;;42.10;22.20;;;4.90;1.00;;;;;;5072402;28;20565;-61
2021/03/04 00:32:05;;;;;;;42.03;21.80;;;4.90;1.00;;;;;;5077692;28;20202;-59
2021/03/04 00:34:30;;;;;;;42.23;21.77;;;5.00;1.00;;;;;;5070120;28;20191;-60
2021/03/04 00:36:56;;;;;;;49.00;22.80;;;5.00;1.00;;;;;;5076925;28;20432;-61
2021/03/04 00:39:21;;;;;;;39.60;21.67;;;4.90;1.00;;;;;;5079600;28;20187;-60
2021/03/04 00:41:47;;;;;;;41.23;21.13;;;4.90;1.00;;;;;;5078045;28;20668;-62
2021/03/04 00:44:12;;;;;;;43.33;21.70;;;5.00;1.00;;;;;;5085930;28;20203;-61
2021/03/04 00:46:38;;;;;;;40.47;19.83;;;5.00;1.00;;;;;;5073531;28;20634;-59
2021/03/04 00:49:04;;;;;;;43.00;22.23;;;5.00;1.00;;;;;;5074223;28;20297;-59
2021/03/04 00:51:29;;;;;;;44.63;23.70;;;5.00;1.00;;;;;;5077180;28;20524;-60
2021/03/04 00:53:55;;;;;;;35.13;20.57;;;4.90;1.00;;;;;;5059996;28;20242;-61
2021/03/04 00:56:21;;;;;;;48.67;24.60;;;4.90;1.00;;;;;;5072604;28;20512;-61
2021/03/04 00:58:47;;;;;;;41.77;22.30;;;4.80;1.00;;;;;;5074644;28;20555;-60
2021/03/04 01:01:13;;;;;;;47.93;22.00;;;4.80;1.00;;;;;;5069161;28;20281;-60
2021/03/04 01:03:38;;;;;;;43.03;22.83;;;4.80;1.00;;;;;;5072598;28;20528;-59
2021/03/04 01:06:04;;;;;;;41.20;21.40;;;4.80;1.00;;;;;;5078818;28;20867;-59
2021/03/04 01:08:30;;;;;;;50.60;24.53;;;4.80;1.00;;;;;;5070666;28;20264;-60
2021/03/04 01:10:56;;;;;;;43.87;21.33;;;4.90;1.00;;;;;;5071071;28;20217;-59
2021/03/04 01:13:22;;;;;;;46.87;23.57;;;4.90;1.00;;;;;;5071703;28;20661;-60
2021/03/04 01:15:48;;;;;;;36.13;21.33;;;4.90;1.00;;;;;;5075529;28;20183;-60
2021/03/04 01:18:15;;;;;;;44.70;22.10;;;4.90;1.00;;;;;;5073067;28;20476;-60
2021/03/04 01:20:40;;;;;;;42.27;22.47;;;4.90;1.00;;;;;;5074354;28;20651;-59
2021/03/04 01:23:06;;;;;;;47.60;22.97;;;4.80;1.00;;;;;;5079362;28;20514;-60
2021/03/04 01:25:32;;;;;;;41.53;21.67;;;4.80;1.00;;;;;;5072814;28;20207;-59
2021/03/04 01:27:58;;;;;;;40.40;21.57;;;4.80;1.00;;;;;;5076096;28;20290;-61
2021/03/04 01:30:27;;;;;;;47.10;22.57;;;4.80;1.00;;;;;;5070639;28;20178;-60
2021/03/04 01:32:53;;;;;;;43.60;22.63;;;4.80;1.00;;;;;;5079217;28;20429;-60
2021/03/04 01:35:18;;;;;;;39.97;21.80;;;4.80;1.00;;;;;;5077073;28;20814;-60
2021/03/04 01:37:44;;;;;;;43.10;22.30;;;4.90;1.00;;;;;;5079395;28;20286;-59
2021/03/04 01:40:15;;;;;;;40.90;20.43;;;4.90;1.00;;;;;;5069840;28;20184;-59
2021/03/04 01:42:41;;;;;;;34.03;19.97;;;4.90;1.00;;;;;;5070049;28;20686;-59
2021/03/04 01:45:07;;;;;;;38.53;20.50;;;5.00;1.00;;;;;;5081575;28;20496;-60
2021/03/04 01:47:35;;;;;;;39.63;20.90;;;4.90;1.00;;;;;;5082362;28;20180;-60
2021/03/04 01:50:02;;;;;;;37.70;21.10;;;5.00;1.00;;;;;;5088526;28;20432;-60
2021/03/04 01:52:28;;;;;;;47.13;24.50;;;5.00;1.00;;;;;;5085883;28;20448;-61
2021/03/04 01:54:55;;;;;;;40.33;22.03;;;5.00;1.00;;;;;;5087022;28;20444;-59
2021/03/04 01:57:21;;;;;;;43.93;22.20;;;5.10;1.00;;;;;;5074067;28;20198;-59
2021/03/04 01:59:47;;;;;;;45.07;23.43;;;5.10;1.00;;;;;;5073880;28;20446;-61
2021/03/04 02:02:13;;;;;;;36.87;20.40;;;5.00;1.00;;;;;;5073157;28;20535;-60
2021/03/04 02:04:39;;;;;;;39.07;21.07;;;5.00;1.00;;;;;;5084292;28;20210;-60
2021/03/04 02:07:36;;;;;;;40.93;21.93;;;5.00;1.00;;;;;;5077110;28;20448;-61
2021/03/04 02:10:09;;;;;;;49.17;22.13;;;5.00;1.00;;;;;;5054357;28;20466;-61
2021/03/04 02:12:54;;;;;;;46.70;23.30;;;4.90;1.00;;;;;;5072222;28;20494;-60
2021/03/04 02:15:26;;;;;;;41.60;21.67;;;4.90;1.00;;;;;;5086689;28;20438;-59
2021/03/04 02:17:53;;;;;;;44.00;22.77;;;4.90;1.00;;;;;;5070041;28;20473;-59
2021/03/04 02:20:34;;;;;;;36.20;21.13;;;4.80;1.00;;;;;;5074641;28;20434;-64
2021/03/04 02:23:32;;;;;;;43.10;22.80;;;4.80;1.00;;;;;;5075937;28;20451;-58
2021/03/04 02:26:26;;;;;;;42.67;23.80;;;4.80;1.00;;;;;;5077063;28;20821;-59
2021/03/04 02:28:56;;;;;;;42.87;20.67;;;4.80;1.00;;;;;;5072745;28;20938;-61
2021/03/04 02:31:22;;;;;;;46.67;23.63;;;4.80;1.00;;;;;;5074157;28;20433;-59
2021/03/04 02:33:49;;;;;;;38.90;21.13;;;4.80;1.00;;;;;;5072173;28;20921;-59
2021/03/04 02:36:17;;;;;;;38.17;21.47;;;4.70;1.00;;;;;;5077424;28;20468;-61
2021/03/04 02:38:43;;;;;;;43.17;22.90;;;4.70;1.00;;;;;;5073665;28;20449;-60
2021/03/04 02:41:10;;;;;;;42.47;20.23;;;4.80;1.00;;;;;;5081418;28;20462;-62
2021/03/04 02:43:36;;;;;;;38.60;20.50;;;4.80;1.00;;;;;;5077075;28;20441;-60
2021/03/04 02:46:03;;;;;;;39.90;22.63;;;4.80;1.00;;;;;;5071540;28;20829;-60
2021/03/04 02:48:31;;;;;;;40.67;21.90;;;4.80;1.00;;;;;;5066997;28;20532;-59
2021/03/04 02:50:59;;;;;;;42.60;22.77;;;4.80;1.00;;;;;;5078366;28;20438;-59
2021/03/04 02:53:25;;;;;;;42.83;22.03;;;4.80;1.00;;;;;;5077175;28;20441;-59
2021/03/04 02:55:52;;;;;;;33.50;20.40;;;4.70;1.00;;;;;;5070542;28;20530;-60
2021/03/04 02:58:18;;;;;;;35.50;22.77;;;4.70;1.00;;;;;;5077959;28;20449;-60
2021/03/04 03:00:45;;;;;;;44.43;23.13;;;4.70;1.00;;;;;;5080996;28;20440;-60
2021/03/04 03:03:12;;;;;;;39.83;21.33;;;4.70;1.00;;;;;;5080944;28;20472;-59
2021/03/04 03:05:40;;;;;;;39.77;21.97;;;4.70;1.00;;;;;;5085000;28;20940;-61
2021/03/04 03:08:08;;;;;;;48.90;23.67;;;4.60;1.00;;;;;;5085107;28;20445;-60
2021/03/04 03:10:35;;;;;;;39.90;20.97;;;4.60;1.00;;;;;;5068696;28;20499;-61
2021/03/04 03:13:02;;;;;;;41.10;22.43;;;4.50;1.00;;;;;;5085229;28;20441;-61
2021/03/04 03:15:28;;;;;;;37.23;21.10;;;4.60;1.00;;;;;;5073050;28;20768;-61
2021/03/04 03:17:54;;;;;;;44.60;24.07;;;4.60;1.00;;;;;;5073979;28;20506;-60
2021/03/04 03:20:21;;;;;;;45.83;23.47;;;4.70;1.00;;;;;;5088990;28;20237;-60
2021/03/04 03:22:49;;;;;;;44.60;22.70;;;4.60;1.00;;;;;;5069589;28;20918;-61
2021/03/04 03:25:15;;;;;;;43.07;21.30;;;4.60;1.00;;;;;;5083608;28;20460;-61
2021/03/04 03:27:43;;;;;;;45.33;22.57;;;4.60;1.00;;;;;;5072649;28;20465;-61
2021/03/04 03:30:11;;;;;;;41.67;22.07;;;4.60;1.00;;;;;;5076131;28;20931;-60
2021/03/04 03:32:45;;;;;;;43.30;23.17;;;4.00;1.00;;;;;;5073688;28;20437;-61
2021/03/04 03:35:11;;;;;;;45.93;24.03;;;4.60;2.00;;;;;;5080132;28;20457;-61
2021/03/04 03:37:38;;;;;;;41.77;19.30;;;4.60;3.20;;;;;;5073242;28;20433;-61
2021/03/04 03:40:06;;;;;;;40.70;21.50;;;4.60;1.00;;;;;;5074075;28;20928;-61
2021/03/04 03:42:34;;;;;;;37.17;20.77;;;4.60;2.00;;;;;;5082744;28;20963;-60
2021/03/04 03:45:01;;;;;;;34.60;19.50;;;4.60;3.90;;;;;;5079603;28;21043;-59
2021/03/04 03:47:27;;;;;;;38.67;22.77;;;4.60;2.20;;;;;;5076015;28;20795;-59
2021/03/04 03:49:54;;;;;;;34.90;21.87;;;4.60;2.10;;;;;;5074403;28;20442;-59
2021/03/04 03:52:20;;;;;;;39.20;19.93;;;4.60;3.30;;;;;;5092043;28;20273;-60
2021/03/04 03:54:46;;;;;;;39.90;22.70;;;4.70;3.50;;;;;;5082067;28;20440;-59
2021/03/04 03:57:13;;;;;;;39.80;20.80;;;4.60;4.50;;;;;;5069700;28;20201;-61
2021/03/04 03:59:41;;;;;;;44.47;20.90;;;4.60;6.00;;;;;;5072948;28;20207;-60
2021/03/04 04:02:08;;;;;;;41.50;21.77;;;4.70;5.70;;;;;;5077418;28;20430;-59
2021/03/04 04:04:33;;;;;;;41.20;21.90;;;4.70;4.30;;;;;;5083944;28;20595;-60
2021/03/04 04:06:59;;;;;;;36.43;20.83;;;4.70;5.30;;;;;;5084470;28;20509;-61
2021/03/04 04:09:26;;;;;;;39.90;21.70;;;4.70;4.50;;;;;;5076129;28;20196;-59
2021/03/04 04:11:51;;;;;;;47.60;21.63;;;4.80;1.70;;;;;;5082601;28;20745;-59
2021/03/04 04:14:17;;;;;;;37.53;21.13;;;4.80;1.80;;;;;;5079241;28;20443;-60
2021/03/04 04:16:43;;;;;;;41.20;21.90;;;4.70;2.40;;;;;;5078327;28;20671;-61
2021/03/04 04:19:09;;;;;;;43.03;21.90;;;4.80;2.50;;;;;;5079147;28;20178;-61
2021/03/04 04:21:35;;;;;;;40.40;22.47;;;;;;;;;;5079679;28;20434;-61
2021/03/04 04:24:01;;;;;;;43.00;22.67;;;4.80;2.20;;;;;;5079409;28;20436;-59
2021/03/04 04:26:27;;;;;;;40.87;22.30;;;4.80;1.60;;;;;;5070361;28;20984;-60
2021/03/04 04:28:52;;;;;;;37.07;20.70;;;4.90;1.00;;;;;;5075094;28;20187;-60
2021/03/04 04:31:20;;;;;;;40.07;21.47;;;4.90;1.00;;;;;;5079479;28;20195;-60
2021/03/04 04:33:45;;;;;;;39.83;20.37;;;4.90;1.00;;;;;;5071126;28;20228;-60
2021/03/04 04:36:11;;;;;;;35.50;20.53;;;4.80;1.40;;;;;;5073049;28;20453;-60
2021/03/04 04:38:36;;;;;;;41.30;21.37;;;4.80;1.70;;;;;;5072771;28;20205;-59
2021/03/04 04:41:02;;;;;;;39.37;20.60;;;4.80;1.00;;;;;;5088412;28;20189;-61
2021/03/04 04:43:28;;;;;;;43.50;22.63;;;4.80;3.20;;;;;;5070485;28;20192;-61
2021/03/04 04:45:53;;;;;;;41.40;22.00;;;4.80;4.50;;;;;;5068325;28;20639;-61
2021/03/04 04:48:19;;;;;;;37.77;21.17;;;4.80;2.50;;;;;;5080027;28;20722;-61
2021/03/04 04:50:44;;;;;;;40.27;21.97;;;4.80;1.70;;;;;;5087870;28;20570;-59
2021/03/04 04:53:11;;;;;;;36.10;20.50;;;4.80;2.60;;;;;;5084824;28;20220;-60
2021/03/04 04:55:36;;;;;;;35.57;20.20;;;4.80;3.00;;;;;;5083994;28;20191;-59
2021/03/04 04:58:02;;;;;;;38.93;20.80;;;4.80;2.60;;;;;;5071178;28;20495;-59
2021/03/04 05:00:28;;;;;;;37.27;20.60;;;4.80;2.70;;;;;;5088937;28;20587;-59
2021/03/04 05:02:53;;;;;;;37.87;19.80;;;4.80;3.60;;;;;;5074615;28;20788;-58
2021/03/04 05:05:19;;;;;;;39.37;21.63;;;4.80;4.60;;;;;;5072031;28;20215;-59
2021/03/04 05:07:45;;;;;;;45.13;21.07;;;4.80;3.10;;;;;;5070990;28;20179;-58
2021/03/04 05:10:11;;;;;;;38.77;21.07;;;4.80;3.60;;;;;;5084336;28;20272;-59
2021/03/04 05:12:37;;;;;;;39.13;21.70;;;4.70;4.50;;;;;;5073746;28;20171;-59
2021/03/04 05:15:08;;;;;;;39.80;20.97;;;4.60;7.10;;;;;;5086335;28;20500;-59
2021/03/04 05:17:35;;;;;;;40.40;20.60;;;4.60;10.40;;;;;;5071204;28;20445;-58
2021/03/04 05:20:01;;;;;;;38.73;21.30;;;4.70;12.20;;;;;;5088306;28;20441;-58
2021/03/04 05:22:27;;;;;;;41.23;22.57;;;4.70;13.70;;;;;;5088489;28;20429;-57
2021/03/04 05:24:52;;;;;;;33.97;20.00;;;4.80;11.90;;;;;;5085612;28;20463;-59
2021/03/04 05:27:18;;;;;;;40.00;21.27;;;4.70;12.60;;;;;;5077330;28;20219;-59
2021/03/04 05:29:43;;;;;;;36.27;20.57;;;4.80;12.70;;;;;;5081329;28;20174;-57
2021/03/04 05:32:09;;;;;;;38.90;21.83;;;4.80;12.40;;;;;;5078725;28;20274;-58
2021/03/04 05:34:35;;;;;;;41.67;21.43;;;4.80;12.40;;;;;;5076724;28;20544;-58
2021/03/04 05:37:01;;;;;;;40.27;23.00;;;4.80;10.70;;;;;;5081172;28;20189;-59
2021/03/04 05:39:26;;;;;;;34.33;22.00;;;4.90;10.80;;;;;;5085147;28;20188;-58
2021/03/04 05:41:54;;;;;;;35.40;20.60;;;4.80;10.30;;;;;;5083261;28;20891;-59
2021/03/04 05:44:20;;;;;;;41.80;21.40;;;4.90;9.40;;;;;;5087043;28;20263;-59
2021/03/04 05:46:47;;;;;;;41.23;22.10;;;4.80;9.30;;;;;;5079069;28;20453;-58
2021/03/04 05:49:15;;;;;;;34.53;19.70;;;4.90;10.10;;;;;;5073262;28;20981;-57
2021/03/04 05:51:45;;;;;;;38.50;21.07;;;4.90;11.00;;;;;;5073998;28;20499;-57
2021/03/04 05:54:15;;;;;;;36.40;21.10;;;4.90;11.90;;;;;;5081164;28;20484;-57
2021/03/04 05:56:43;;;;;;;38.23;21.10;;;5.00;10.30;;;;;;5090704;28;20439;-57
2021/03/04 05:59:09;;;;;;;39.43;22.50;;;5.00;13.40;;;;;;5092773;28;20479;-56
2021/03/04 06:01:35;;;;;;;36.37;20.40;;;5.00;10.80;;;;;;5078802;28;20428;-57
2021/03/04 06:04:01;;;;;;;31.83;19.27;;;5.00;8.30;;;;;;5086827;28;20524;-58
2021/03/04 06:06:27;;;;;;;40.67;19.47;;;5.00;8.40;;;;;;5081035;28;20464;-57
2021/03/04 06:08:52;;;;;;;42.70;23.80;;;5.00;7.60;;;;;;5092152;28;20486;-58
2021/03/04 06:11:18;;;;;;;42.93;22.93;;;5.20;6.70;;;;;;5086813;28;20179;-56
2021/03/04 06:13:44;;;;;;;40.43;23.73;;;5.10;3.90;;;;;;5092744;28;20307;-58
2021/03/04 06:16:10;;;;;;;43.80;22.90;;;5.10;4.80;;;;;;5081690;28;20183;-57
2021/03/04 06:18:41;;;;;;;40.83;21.87;;;5.20;5.10;;;;;;5083298;28;20445;-57
2021/03/04 06:21:38;;;;;;;36.13;21.43;;;5.30;3.10;;;;;;5081888;28;20187;-57
2021/03/04 06:24:13;;;;;;;37.47;22.43;;;5.30;2.80;;;;;;5039988;28;20448;-58
2021/03/04 06:26:39;;;;;;;36.07;19.20;;;5.30;3.40;;;;;;5078686;28;20461;-59
2021/03/04 06:29:12;;;;;;;43.97;22.57;;;5.30;4.60;;;;;;5080327;28;20891;-58
2021/03/04 06:31:38;;;;;;;39.70;21.23;;;5.40;1.00;;;;;;5086354;28;20237;-58
2021/03/04 06:34:23;;;;;;;37.27;21.97;;;5.40;1.00;;;;;;5083923;28;20934;-59
2021/03/04 06:37:04;;;;;;;37.13;20.80;;;5.50;1.00;;;;;;5076715;28;20180;-57
2021/03/04 06:39:45;;;;;;;51.00;24.30;;;5.60;1.00;;;;;;5081240;28;20948;-56
2021/03/04 06:42:11;;;;;;;45.27;22.30;;;5.60;1.00;;;;;;5070185;28;20437;-58
2021/03/04 06:44:47;;;;;;;39.23;22.53;;;5.70;1.00;;;;;;5079949;28;20961;-57
2021/03/04 06:47:39;;;;;;;40.00;21.30;;;5.70;1.00;;;;;;5074224;28;20428;-57
2021/03/04 06:50:05;;;;;;;38.43;21.97;;;5.70;1.00;;;;;;5085820;28;20475;-58
2021/03/04 06:52:32;;;;;;;37.67;19.37;;;5.80;1.00;;;;;;5085962;28;20512;-57
2021/03/04 06:55:14;;;;;;;39.93;22.23;;;5.80;1.00;;;;;;5092941;28;20750;-58
2021/03/04 06:57:40;;;;;;;37.73;22.03;;;5.80;1.00;;;;;;5083136;28;20455;-56
2021/03/04 07:00:26;;;;;;;40.17;22.80;;;5.70;1.00;;;;;;5080082;28;20445;-58
2021/03/04 07:02:57;;;;;;;33.90;21.13;;;5.70;1.00;;;;;;5083026;28;20190;-57
2021/03/04 07:05:24;;;;;;;43.97;23.90;;;5.70;1.00;;;;;;5083589;28;20492;-59
2021/03/04 07:07:54;;;;;;;43.87;22.90;;;5.80;1.00;;;;;;5080009;28;20433;-58
2021/03/04 07:10:22;;;;;;;48.93;22.87;;;5.70;1.00;;;;;;5076194;28;20604;-57
2021/03/04 07:12:48;;;;;;;43.47;21.80;;;5.70;1.00;;;;;;5080303;28;20445;-58
2021/03/04 07:15:15;;;;;;;33.90;20.60;;;5.80;1.00;;;;;;5085327;28;20470;-58
2021/03/04 07:17:42;;;;;;;39.40;22.57;;;5.80;1.00;;;;;;5079486;28;20529;-59
2021/03/04 07:20:13;;;;;;;41.63;22.60;;;5.80;1.00;;;;;;5080197;28;20434;-57
2021/03/04 07:22:41;;;;;;;41.73;23.97;;;5.90;1.00;;;;;;5086734;28;20441;-57
2021/03/04 07:25:07;;;;;;;42.63;22.33;;;5.90;1.00;;;;;;5072682;28;21036;-57
2021/03/04 07:27:34;;;;;;;39.80;22.10;;;5.90;1.00;;;;;;5070050;28;20470;-57
2021/03/04 07:29:59;;;;;;;36.70;22.93;;;6.10;1.00;;;;;;5078771;28;20437;-59
2021/03/04 07:32:25;;;;;;;43.00;23.50;;;6.10;1.00;;;;;;5080200;28;20722;-58
2021/03/04 07:34:52;;;;;;;40.83;21.87;;;6.20;1.00;;;;;;5074387;28;20194;-59
2021/03/04 07:37:18;;;;;;;36.67;20.90;;;6.40;1.00;;;;;;5076745;28;20449;-59
2021/03/04 07:39:47;;;;;;;36.97;21.77;;;6.50;1.00;;;;;;5062153;28;20438;-58
2021/03/04 07:42:18;;;;;;;37.47;21.90;;;6.80;1.00;;;;;;5082910;28;20770;-59
2021/03/04 07:44:43;;;;;;;36.97;21.40;;;6.80;1.00;;;;;;5073308;28;21068;-58
2021/03/04 07:47:10;;;;;;;45.13;25.40;;;6.90;1.00;;;;;;5085374;28;20502;-58
2021/03/04 07:49:41;;;;;;;36.63;21.40;;;6.90;1.00;;;;;;5074836;28;20253;-59
2021/03/04 07:52:12;;;;;;;36.10;21.63;;;7.00;1.00;;;;;;5077512;28;20818;-59
2021/03/04 07:54:39;;;;;;;33.90;21.43;;;7.10;1.00;;;;;;5084103;28;20450;-59
2021/03/04 07:57:09;;;;;;;36.57;22.50;;;7.10;1.00;;;;;;5070230;28;20919;-59
2021/03/04 07:59:36;;;;;;;37.83;23.87;;;7.10;1.00;;;;;;5076846;28;20445;-58
2021/03/04 08:02:03;;;;;;;39.33;23.20;;;7.10;1.00;;;;;;5077540;28;20437;-59
2021/03/04 08:04:30;;;;;;;47.00;24.40;;;7.10;1.00;;;;;;5083927;28;20460;-59
2021/03/04 08:06:58;;;;;;;38.40;21.80;;;7.30;1.00;;;;;;5074403;28;20424;-59
2021/03/04 08:09:31;;;;;;;38.47;22.97;;;7.30;1.00;;;;;;5070625;28;20495;-58
2021/03/04 08:12:14;;;;;;;34.70;21.00;;;7.30;1.00;;;;;;5070282;28;20442;-58
2021/03/04 08:14:57;;;;;;;35.73;21.13;;;7.50;1.00;;;;;;5075816;28;20525;-59
2021/03/04 08:17:35;;;;;;;49.00;24.97;;;7.50;1.00;;;;;;5070760;28;20445;-58
2021/03/04 08:20:12;;;;;;;38.90;22.90;;;7.60;1.00;;;;;;5077646;28;20436;-58
2021/03/04 08:22:58;;;;;;;36.33;22.17;;;7.80;1.00;;;;;;5084430;28;20526;-58
2021/03/04 08:25:29;;;;;;;44.40;25.97;;;7.90;1.00;;;;;;5069485;28;20549;-59
2021/03/04 08:27:55;;;;;;;36.17;22.20;;;8.00;1.00;;;;;;5069882;28;20957;-59
2021/03/04 08:30:32;;;;;;;43.47;23.27;;;8.20;1.00;;;;;;5084303;28;20999;-58
2021/03/04 08:33:10;;;;;;;39.23;23.53;;;8.40;1.00;;;;;;5069022;28;20437;-59
2021/03/04 08:35:38;;;;;;;39.80;23.17;;;8.50;1.00;;;;;;5070321;28;20798;-58
2021/03/04 08:38:07;;;;;;;35.80;22.03;;;8.70;1.00;;;;;;5074328;28;20452;-58
2021/03/04 08:41:00;;;;;;;37.70;23.87;;;8.80;1.00;;;;;;5089831;28;20447;-57
2021/03/04 08:43:28;;;;;;;38.93;23.80;;;9.00;1.00;;;;;;5066336;28;20538;-57
2021/03/04 08:45:55;;;;;;;32.93;22.27;;;9.30;1.00;;;;;;5070518;28;20930;-58
2021/03/04 08:48:22;;;;;;;39.00;23.27;;;9.70;1.00;;;;;;5072250;28;20516;-60
2021/03/04 08:50:49;;;;;;;36.40;23.07;;;10.20;1.00;;;;;;5069155;28;20449;-57
2021/03/04 08:53:27;;;;;;;37.93;23.97;;;10.80;1.00;;;;;;5073599;28;20773;-59
2021/03/04 08:55:55;;;;;;;39.07;24.83;;;10.80;1.00;;;;;;5079590;28;20825;-60
2021/03/04 08:58:23;;;;;;;35.97;22.93;;;11.10;1.00;;;;;;5077447;28;20449;-57
2021/03/04 09:00:54;;;;;;;38.53;23.87;;;11.40;1.00;;;;;;5076166;28;20530;-60
2021/03/04 09:03:20;;;;;;;37.43;23.50;;;11.70;1.00;;;;;;5069489;28;20803;-60
2021/03/04 09:05:47;;;;;;;35.97;23.10;;;11.50;1.00;;;;;;5071757;28;20940;-58
2021/03/04 09:08:14;;;;;;;40.93;24.03;;;11.50;1.00;;;;;;5076949;28;20527;-58
2021/03/04 09:10:59;;;;;;;42.70;24.30;;;11.40;1.00;;;;;;5077569;28;20450;-60
2021/03/04 09:13:26;;;;;;;39.23;24.00;;;11.20;1.00;;;;;;5069588;28;20455;-59
2021/03/04 09:15:55;;;;;;;36.73;23.70;;;11.10;1.00;;;;;;5085620;28;20511;-58
2021/03/04 09:18:23;;;;;;;38.93;25.17;;;11.30;1.00;;;;;;5078843;28;20486;-60
2021/03/04 09:20:50;;;;;;;37.50;24.53;;;11.20;1.00;;;;;;5082262;28;20475;-59
2021/03/04 09:23:16;;;;;;;40.63;25.53;;;11.10;1.00;;;;;;5087899;28;20945;-60
2021/03/04 09:25:43;;;;;;;44.80;26.83;;;11.10;1.00;;;;;;5097687;28;20766;-59
2021/03/04 09:28:14;;;;;;;42.53;27.80;;;11.20;1.00;;;;;;5088513;28;20468;-60
2021/03/04 09:30:40;;;;;;;40.70;25.10;;;11.20;1.00;;;;;;5089386;28;20806;-62
2021/03/04 09:33:19;;;;;;;40.53;26.73;;;11.10;1.00;;;;;;5079855;28;20455;-60
2021/03/04 09:35:59;;;;;;;39.23;24.83;;;11.10;1.00;;;;;;5080462;28;20495;-59
2021/03/04 09:38:26;;;;;;;36.83;25.87;;;11.10;1.00;;;;;;5076602;28;20959;-58
2021/03/04 09:40:53;;;;;;;44.00;27.43;;;11.20;1.00;;;;;;5082443;28;20443;-60
2021/03/04 09:43:20;;;;;;;38.13;26.33;;;11.40;1.00;;;;;;5078624;28;20657;-61
2021/03/04 09:45:47;;;;;;;43.53;26.30;;;11.50;1.00;;;;;;5077251;28;20532;-59
2021/03/04 09:48:14;;;;;;;40.53;27.07;;;11.70;1.00;;;;;;5076973;28;20437;-59
2021/03/04 09:50:50;;;;;;;48.73;28.77;;;12.00;1.00;;;;;;5081703;28;20926;-61
2021/03/04 09:53:17;;;;;;;47.00;30.40;;;12.10;1.00;;;;;;5096738;28;20507;-59
2021/03/04 09:55:45;;;;;;;45.63;31.53;;;12.50;1.00;;;;;;5086793;28;20468;-60
2021/03/04 09:58:24;;;;;;;48.30;32.23;;;12.80;1.00;;;;;;5081438;28;20447;-61
2021/03/04 10:01:00;;;;;;;42.57;30.13;;;12.90;1.00;;;;;;5090876;28;20826;-63
2021/03/04 10:03:37;;;;;;;51.27;32.30;;;13.00;1.00;;;;;;5076355;28;20448;-61
2021/03/04 10:06:03;;;;;;;52.73;33.83;;;13.00;1.00;;;;;;5072965;28;20471;-62
2021/03/04 10:08:42;;;;;;;52.73;35.93;;;13.40;1.00;;;;;;5072398;28;20910;-62
2021/03/04 10:11:19;;;;;;;65.60;38.43;;;13.60;1.00;;;;;;5073477;28;20488;-63
2021/03/04 10:13:44;;;;;;;53.17;38.70;;;13.80;1.00;;;;;;5070737;28;20445;-63
2021/03/04 10:16:11;;;;;;;63.80;41.67;;;13.60;1.00;;;;;;5073145;28;20451;-62
2021/03/04 10:18:36;;;;;;;57.67;39.40;;;13.50;1.00;;;;;;5072166;28;20194;-57
2021/03/04 10:21:03;;;;;;;62.43;41.53;;;13.40;1.00;;;;;;5072133;28;20441;-61
2021/03/04 10:23:29;;;;;;;64.33;42.00;;;13.30;1.00;;;;;;5055066;28;20675;-60
2021/03/04 10:25:54;;;;;;;68.27;44.70;;;13.20;1.00;;;;;;5072986;28;20483;-58
2021/03/04 10:28:20;;;;;;;64.43;42.97;;;13.00;1.00;;;;;;5071360;28;20627;-60
2021/03/04 10:30:45;;;;;;;74.77;43.43;;;13.00;1.00;;;;;;5072237;28;20178;-61
2021/03/04 10:33:12;;;;;;;66.80;46.10;;;12.90;1.00;;;;;;5072466;28;20595;-61
2021/03/04 10:35:38;;;;;;;72.70;46.07;;;12.90;1.00;;;;;;5070258;28;20682;-59
2021/03/04 10:38:04;;;;;;;68.67;45.37;;;12.70;1.00;;;;;;5077397;28;20481;-59
2021/03/04 10:40:30;;;;;;;74.77;46.63;;;12.60;1.00;;;;;;5070324;28;20244;-59
2021/03/04 10:42:56;;;;;;;76.30;46.93;;;12.50;1.00;;;;;;5071800;28;20448;-61
2021/03/04 10:45:21;;;;;;;88.93;48.50;;;12.50;1.00;;;;;;5072844;28;20230;-61
2021/03/04 10:47:47;;;;;;;67.80;45.80;;;12.40;1.00;;;;;;5072448;28;20177;-61
2021/03/04 10:50:17;;;;;;;80.50;48.63;;;12.20;1.00;;;;;;5070854;28;20222;-61
2021/03/04 10:52:44;;;;;;;79.50;51.57;;;12.20;1.00;;;;;;5070227;28;20184;-61
2021/03/04 10:55:11;;;;;;;75.20;46.87;;;12.30;1.00;;;;;;5072008;28;20449;-61
2021/03/04 10:57:37;;;;;;;71.30;46.77;;;12.40;1.00;;;;;;5070829;28;20457;-61
2021/03/04 11:00:09;;;;;;;79.00;49.00;;;12.30;1.00;;;;;;5072451;28;20435;-60
2021/03/04 11:02:34;;;;;;;76.10;50.63;;;11.90;1.00;;;;;;5072397;28;20459;-61
2021/03/04 11:05:00;;;;;;;66.93;46.40;;;12.30;1.00;;;;;;5080456;28;20495;-61
2021/03/04 11:07:26;;;;;;;74.30;47.00;;;12.20;1.00;;;;;;5083380;28;20998;-61
2021/03/04 11:09:52;;;;;;;83.97;49.70;;;11.90;1.00;;;;;;5073815;28;20445;-60
2021/03/04 11:12:21;;;;;;;80.67;50.27;;;11.80;1.00;;;;;;5085018;28;20193;-61
2021/03/04 11:14:46;;;;;;;87.27;53.23;;;11.70;1.00;;;;;;5091013;28;20833;-60
2021/03/04 11:17:13;;;;;;;89.30;54.10;;;11.60;1.00;;;;;;5076802;28;20462;-61
2021/03/04 11:19:38;;;;;;;92.80;55.67;;;11.40;1.00;;;;;;5064561;28;20614;-61
2021/03/04 11:22:09;;;;;;;87.80;52.20;;;11.20;1.00;;;;;;5086843;28;20433;-60
2021/03/04 11:24:35;;;;;;;89.67;55.30;;;10.90;1.00;;;;;;5082181;28;20228;-60
2021/03/04 11:27:02;;;;;;;90.93;54.90;;;10.70;1.00;;;;;;5078730;28;20908;-61
2021/03/04 11:29:27;;;;;;;84.90;53.30;;;10.80;1.00;;;;;;5081578;28;21058;-61
2021/03/04 11:31:53;;;;;;;104.70;54.90;;;10.80;1.00;;;;;;5080762;28;20525;-60
2021/03/04 11:34:18;;;;;;;93.83;54.63;;;10.90;1.00;;;;;;5084753;28;20188;-60
2021/03/04 11:36:44;;;;;;;88.63;55.53;;;10.80;1.00;;;;;;5073345;28;20637;-61
2021/03/04 11:39:09;;;;;;;92.40;57.77;;;10.70;29.00;;;;;;5076617;28;20179;-60
2021/03/04 11:41:35;;;;;;;96.63;56.87;;;10.60;99.90;;;;;;5093571;28;20250;-61
2021/03/04 11:44:01;;;;;;;91.90;57.40;;;10.60;99.90;;;;;;5081505;28;20179;-60
2021/03/04 11:46:26;;;;;;;102.60;58.10;;;10.60;99.90;;;;;;5073044;28;20271;-60
2021/03/04 11:48:53;;;;;;;99.60;56.20;;;10.60;99.90;;;;;;5077829;28;20191;-61
2021/03/04 11:51:20;;;;;;;113.77;58.57;;;10.60;99.90;;;;;;5093524;28;20202;-61
2021/03/04 11:53:48;;;;;;;91.23;54.93;;;10.70;99.90;;;;;;5078926;28;20434;-60
2021/03/04 11:56:14;;;;;;;92.83;53.87;;;10.70;99.90;;;;;;5084477;28;20432;-61
2021/03/04 11:58:39;;;;;;;80.60;51.97;;;10.80;99.90;;;;;;5082251;28;20793;-61
2021/03/04 12:01:05;;;;;;;82.47;47.83;;;10.80;99.90;;;;;;5082968;28;20532;-61
2021/03/04 12:03:31;;;;;;;81.87;46.37;;;10.80;99.90;;;;;;5077068;28;20191;-61
2021/03/04 12:05:57;;;;;;;82.93;51.70;;;10.80;99.90;;;;;;5083979;28;20280;-61
2021/03/04 12:08:22;;;;;;;77.23;49.07;;;10.90;99.90;;;;;;5079716;28;20182;-61
2021/03/04 12:10:48;;;;;;;78.77;49.37;;;11.10;99.90;;;;;;5077333;28;20192;-61
2021/03/04 12:13:13;;;;;;;80.07;49.87;;;11.00;99.90;;;;;;5086887;28;20517;-61
2021/03/04 12:15:41;;;;;;;84.30;47.00;;;11.00;99.90;;;;;;5072786;28;20309;-61
2021/03/04 12:18:07;;;;;;;85.13;49.37;;;11.00;99.90;;;;;;5073197;28;20190;-61
2021/03/04 12:20:33;;;;;;;78.13;48.23;;;11.10;99.90;;;;;;5085650;28;20683;-61
2021/03/04 12:22:59;;;;;;;78.00;49.23;;;11.20;99.90;;;;;;5080888;28;20535;-61
2021/03/04 12:25:25;;;;;;;81.07;50.70;;;11.30;99.90;;;;;;5080375;28;20460;-58
2021/03/04 12:27:52;;;;;;;86.57;52.73;;;11.30;99.90;;;;;;5072490;28;20600;-58
2021/03/04 12:30:18;;;;;;;80.67;47.60;;;11.30;99.90;;;;;;5080100;28;20466;-58
2021/03/04 12:32:44;;;;;;;87.37;49.07;;;11.40;99.90;;;;;;5073669;28;20569;-58
2021/03/04 12:35:11;;;;;;;81.80;51.17;;;11.30;99.90;;;;;;5073467;28;20539;-58
2021/03/04 12:37:38;;;;;;;81.63;48.83;;;11.30;99.90;;;;;;5074606;28;20865;-58
2021/03/04 12:40:05;;;;;;;79.30;49.03;;;11.30;99.90;;;;;;5071740;28;20441;-58
2021/03/04 12:42:31;;;;;;;76.50;47.60;;;11.10;99.90;;;;;;5079997;28;20487;-58
2021/03/04 12:44:56;;;;;;;82.67;50.97;;;10.90;99.90;;;;;;5074272;28;20984;-58
2021/03/04 12:47:22;;;;;;;84.10;49.67;;;10.80;99.90;;;;;;5072584;28;20486;-58